Nelson House, Canada
Current Conditions -  °F | °C
As of 5:00 PM on Saturday 25 Oct 2014 (Local Time) from CYTH Reporting Station
Rain Showers Rain Showers  
Wind Chill: 31°   Ceiling: 2800
Heat Index: 39°   Visibility: 15mi
Dew Point: 30°   Wind: 14mph
Humidity: 70%   Direction: 290°WNW
Pressure: 29.8"   Gusts: 25mph
Location:  55.8°N, 98.87°W
Report Text: CYTH 252200Z 29012G22KT 15SM VCSH BKN028 BKN050 04/M01 A2980 RMK SC5SC2 SLP104
Loading
Personal Weather Stations






























Interactive Weather Map
Tropical Storm Tracking
New forecast layout! Learn more

10-Day Weather Forecast

Advertisements
Track Severe Weather on mobile